Theodore Francis Green State Airport Providence US
ICAO: KPVD
IATA: PVD
Category: Medium
Scheduled Services: Yes

Elevation: 55 ft
TransAlt. 18000 ft.

Airport Communications:
PROVIDENCE APP/DEP:135.4
ATIS:124.2
CLNC DEL:126.65
CTAF:120.7
PROVIDENCE GND:121.9
BRIDGEPORT RDO:122.6
PROVIDENCE TWR:120.7

KPVD Zoom In..

If you have problems with the map follow the link
https://www.worldairports.se/pages/airport.php?
ICAO=KPVD

Runways:

(A) RW 05 length 7166 ft width 150 ft
ILS 109.30 / hdg 47

(B) RW 16 length 6081 ft width 150 ft
---- / hdg 157

(C) RW 23 length 7166 ft width 150 ft
ILS 109.30 / hdg 227

(D) RW 34 length 6081 ft width 150 ft
ILS 111.50 / hdg 337

Location; KPVD
Day. 19 / Time. 18.51 Zulu
* Altimeter: 30.13
* Temperature: 07° c. 44.6°f.
* Wind from: 310° Speed 17 kn with Gusts up to 35 kn.
Dewpoint: -11° c.
Visibility: 10 Statute Miles.
Clouds: Few 6000 ft.
Clouds: Few 25000 ft.

KPVD 191851Z 31017G35KT 10SM FEW060 FEW250 07/M11 A3013 RMK AO2 PK WND 28035/1843 SLP203 T00671106


Wind From 310°
Speed 17 kn.

 
 
jpsmedia worldairports.se 2020   terms of use